sensor_id;sensor_type;location;lat;lon;timestamp;P1;durP1;ratioP1;P2;durP2;ratioP2
92;SDS011;16232;48.800;9.002;2024-03-07T00:00:28;55.90;;;34.67;;
92;SDS011;16232;48.800;9.002;2024-03-07T00:03:00;58.80;;;35.03;;
92;SDS011;16232;48.800;9.002;2024-03-07T00:05:34;46.60;;;30.90;;
92;SDS011;16232;48.800;9.002;2024-03-07T00:08:02;47.20;;;31.50;;
92;SDS011;16232;48.800;9.002;2024-03-07T00:10:30;50.47;;;32.50;;
92;SDS011;16232;48.800;9.002;2024-03-07T00:12:57;52.33;;;33.73;;
92;SDS011;16232;48.800;9.002;2024-03-07T00:15:25;51.30;;;32.83;;
92;SDS011;16232;48.800;9.002;2024-03-07T00:17:55;53.73;;;34.73;;
92;SDS011;16232;48.800;9.002;2024-03-07T00:20:22;49.00;;;32.50;;
92;SDS011;16232;48.800;9.002;2024-03-07T00:22:51;59.47;;;34.27;;
92;SDS011;16232;48.800;9.002;2024-03-07T00:25:19;56.10;;;35.03;;
92;SDS011;16232;48.800;9.002;2024-03-07T00:27:47;61.70;;;35.43;;
92;SDS011;16232;48.800;9.002;2024-03-07T00:30:18;58.97;;;36.03;;
92;SDS011;16232;48.800;9.002;2024-03-07T00:32:46;53.23;;;34.07;;
92;SDS011;16232;48.800;9.002;2024-03-07T00:35:13;65.77;;;36.00;;
92;SDS011;16232;48.800;9.002;2024-03-07T00:37:41;60.60;;;35.83;;
92;SDS011;16232;48.800;9.002;2024-03-07T00:40:10;56.70;;;35.13;;
92;SDS011;16232;48.800;9.002;2024-03-07T00:42:36;46.50;;;31.50;;
92;SDS011;16232;48.800;9.002;2024-03-07T00:45:04;52.40;;;33.87;;
92;SDS011;16232;48.800;9.002;2024-03-07T00:47:32;51.37;;;32.87;;
92;SDS011;16232;48.800;9.002;2024-03-07T00:49:59;55.20;;;34.90;;
92;SDS011;16232;48.800;9.002;2024-03-07T00:52:26;52.00;;;33.47;;
92;SDS011;16232;48.800;9.002;2024-03-07T00:54:54;50.60;;;33.70;;
92;SDS011;16232;48.800;9.002;2024-03-07T00:57:23;52.97;;;33.97;;
92;SDS011;16232;48.800;9.002;2024-03-07T00:59:50;63.17;;;37.77;;
92;SDS011;16232;48.800;9.002;2024-03-07T01:02:17;56.47;;;34.07;;
92;SDS011;16232;48.800;9.002;2024-03-07T01:04:45;59.37;;;36.60;;
92;SDS011;16232;48.800;9.002;2024-03-07T01:07:12;48.70;;;33.67;;
92;SDS011;16232;48.800;9.002;2024-03-07T01:09:39;69.30;;;40.07;;
92;SDS011;16232;48.800;9.002;2024-03-07T01:12:10;58.80;;;36.57;;
92;SDS011;16232;48.800;9.002;2024-03-07T01:14:39;54.07;;;35.07;;
92;SDS011;16232;48.800;9.002;2024-03-07T01:17:06;52.80;;;37.20;;
92;SDS011;16232;48.800;9.002;2024-03-07T01:19:34;56.77;;;37.30;;
92;SDS011;16232;48.800;9.002;2024-03-07T01:22:01;52.30;;;36.43;;
92;SDS011;16232;48.800;9.002;2024-03-07T01:24:28;61.67;;;38.93;;
92;SDS011;16232;48.800;9.002;2024-03-07T01:26:56;50.97;;;36.50;;
92;SDS011;16232;48.800;9.002;2024-03-07T01:29:25;57.40;;;37.90;;
92;SDS011;16232;48.800;9.002;2024-03-07T01:31:53;62.43;;;39.97;;
92;SDS011;16232;48.800;9.002;2024-03-07T01:34:21;55.57;;;37.73;;
92;SDS011;16232;48.800;9.002;2024-03-07T01:36:48;60.57;;;38.13;;
92;SDS011;16232;48.800;9.002;2024-03-07T01:39:15;67.03;;;41.93;;
92;SDS011;16232;48.800;9.002;2024-03-07T01:41:43;75.97;;;43.57;;
92;SDS011;16232;48.800;9.002;2024-03-07T01:44:10;56.63;;;36.97;;
92;SDS011;16232;48.800;9.002;2024-03-07T01:46:38;68.40;;;40.60;;
92;SDS011;16232;48.800;9.002;2024-03-07T01:49:08;57.50;;;37.83;;
92;SDS011;16232;48.800;9.002;2024-03-07T01:51:36;56.87;;;38.00;;
92;SDS011;16232;48.800;9.002;2024-03-07T01:54:03;58.57;;;38.50;;
92;SDS011;16232;48.800;9.002;2024-03-07T01:56:32;60.67;;;39.57;;
92;SDS011;16232;48.800;9.002;2024-03-07T01:58:59;61.17;;;40.57;;
92;SDS011;16232;48.800;9.002;2024-03-07T02:01:28;68.40;;;43.43;;
92;SDS011;16232;48.800;9.002;2024-03-07T02:03:56;65.73;;;40.73;;
92;SDS011;16232;48.800;9.002;2024-03-07T02:06:28;67.10;;;41.97;;
92;SDS011;16232;48.800;9.002;2024-03-07T02:08:55;79.03;;;45.50;;
92;SDS011;16232;48.800;9.002;2024-03-07T02:11:23;69.47;;;43.63;;
92;SDS011;16232;48.800;9.002;2024-03-07T02:13:50;63.40;;;40.80;;
92;SDS011;16232;48.800;9.002;2024-03-07T02:16:18;75.17;;;44.23;;
92;SDS011;16232;48.800;9.002;2024-03-07T02:18:46;70.03;;;42.90;;
92;SDS011;16232;48.800;9.002;2024-03-07T02:21:15;68.63;;;42.13;;
92;SDS011;16232;48.800;9.002;2024-03-07T02:23:42;66.27;;;40.00;;
92;SDS011;16232;48.800;9.002;2024-03-07T02:26:10;82.77;;;46.47;;
92;SDS011;16232;48.800;9.002;2024-03-07T02:28:37;82.50;;;44.90;;
92;SDS011;16232;48.800;9.002;2024-03-07T02:31:05;78.30;;;45.20;;
92;SDS011;16232;48.800;9.002;2024-03-07T02:33:32;81.40;;;45.63;;
92;SDS011;16232;48.800;9.002;2024-03-07T02:36:03;80.70;;;44.17;;
92;SDS011;16232;48.800;9.002;2024-03-07T02:38:32;74.23;;;43.03;;
92;SDS011;16232;48.800;9.002;2024-03-07T02:40:59;64.90;;;39.87;;
92;SDS011;16232;48.800;9.002;2024-03-07T02:43:27;82.30;;;44.90;;
92;SDS011;16232;48.800;9.002;2024-03-07T02:45:54;70.63;;;41.70;;
92;SDS011;16232;48.800;9.002;2024-03-07T02:48:22;73.03;;;43.23;;
92;SDS011;16232;48.800;9.002;2024-03-07T02:50:49;69.43;;;42.93;;
92;SDS011;16232;48.800;9.002;2024-03-07T02:53:17;75.90;;;43.07;;
92;SDS011;16232;48.800;9.002;2024-03-07T02:55:45;82.73;;;44.73;;
92;SDS011;16232;48.800;9.002;2024-03-07T02:58:13;80.90;;;44.07;;
92;SDS011;16232;48.800;9.002;2024-03-07T03:00:41;64.07;;;39.90;;
92;SDS011;16232;48.800;9.002;2024-03-07T03:03:08;80.33;;;43.97;;
92;SDS011;16232;48.800;9.002;2024-03-07T03:05:39;74.33;;;42.67;;
92;SDS011;16232;48.800;9.002;2024-03-07T03:08:06;83.70;;;46.80;;
92;SDS011;16232;48.800;9.002;2024-03-07T03:10:35;73.33;;;42.27;;
92;SDS011;16232;48.800;9.002;2024-03-07T03:13:04;75.20;;;42.13;;
92;SDS011;16232;48.800;9.002;2024-03-07T03:15:32;83.93;;;45.53;;
92;SDS011;16232;48.800;9.002;2024-03-07T03:18:00;76.13;;;41.83;;
92;SDS011;16232;48.800;9.002;2024-03-07T03:20:30;96.37;;;46.43;;
92;SDS011;16232;48.800;9.002;2024-03-07T03:23:04;84.43;;;45.20;;
92;SDS011;16232;48.800;9.002;2024-03-07T03:25:31;92.13;;;47.07;;
92;SDS011;16232;48.800;9.002;2024-03-07T03:28:06;84.07;;;46.23;;
92;SDS011;16232;48.800;9.002;2024-03-07T03:30:35;92.10;;;46.47;;
92;SDS011;16232;48.800;9.002;2024-03-07T03:33:02;87.73;;;45.30;;
92;SDS011;16232;48.800;9.002;2024-03-07T03:35:30;95.87;;;48.13;;
92;SDS011;16232;48.800;9.002;2024-03-07T03:37:58;90.03;;;46.00;;
92;SDS011;16232;48.800;9.002;2024-03-07T03:40:26;65.07;;;41.03;;
92;SDS011;16232;48.800;9.002;2024-03-07T03:42:53;91.17;;;44.40;;
92;SDS011;16232;48.800;9.002;2024-03-07T03:45:22;78.47;;;43.00;;
92;SDS011;16232;48.800;9.002;2024-03-07T03:47:50;97.77;;;46.70;;
92;SDS011;16232;48.800;9.002;2024-03-07T03:50:24;86.43;;;45.50;;
92;SDS011;16232;48.800;9.002;2024-03-07T03:52:51;106.50;;;48.77;;
92;SDS011;16232;48.800;9.002;2024-03-07T03:55:19;110.40;;;48.03;;
92;SDS011;16232;48.800;9.002;2024-03-07T03:57:47;68.87;;;40.13;;
92;SDS011;16232;48.800;9.002;2024-03-07T04:00:15;64.37;;;38.23;;
92;SDS011;16232;48.800;9.002;2024-03-07T04:02:44;74.70;;;41.30;;
92;SDS011;16232;48.800;9.002;2024-03-07T04:05:13;64.13;;;38.17;;
92;SDS011;16232;48.800;9.002;2024-03-07T04:07:40;80.03;;;41.43;;
92;SDS011;16232;48.800;9.002;2024-03-07T04:10:08;72.70;;;40.50;;
92;SDS011;16232;48.800;9.002;2024-03-07T04:12:39;71.20;;;38.03;;
92;SDS011;16232;48.800;9.002;2024-03-07T04:15:08;64.83;;;37.27;;
92;SDS011;16232;48.800;9.002;2024-03-07T04:17:35;64.90;;;37.13;;
92;SDS011;16232;48.800;9.002;2024-03-07T04:20:05;84.43;;;41.13;;
92;SDS011;16232;48.800;9.002;2024-03-07T04:22:32;66.17;;;38.57;;
92;SDS011;16232;48.800;9.002;2024-03-07T04:25:00;64.40;;;37.23;;
92;SDS011;16232;48.800;9.002;2024-03-07T04:27:27;67.67;;;40.03;;
92;SDS011;16232;48.800;9.002;2024-03-07T04:29:55;68.50;;;38.20;;
92;SDS011;16232;48.800;9.002;2024-03-07T04:32:23;71.87;;;39.83;;
92;SDS011;16232;48.800;9.002;2024-03-07T04:34:50;68.60;;;39.50;;
92;SDS011;16232;48.800;9.002;2024-03-07T04:37:19;78.63;;;41.20;;
92;SDS011;16232;48.800;9.002;2024-03-07T04:39:47;91.77;;;42.63;;
92;SDS011;16232;48.800;9.002;2024-03-07T04:42:14;68.73;;;38.67;;
92;SDS011;16232;48.800;9.002;2024-03-07T04:44:41;107.33;;;45.23;;
92;SDS011;16232;48.800;9.002;2024-03-07T04:47:09;65.20;;;38.60;;
92;SDS011;16232;48.800;9.002;2024-03-07T04:49:36;72.27;;;39.47;;
92;SDS011;16232;48.800;9.002;2024-03-07T04:52:05;76.07;;;39.83;;
92;SDS011;16232;48.800;9.002;2024-03-07T04:54:35;80.40;;;41.83;;
92;SDS011;16232;48.800;9.002;2024-03-07T04:57:02;62.60;;;37.20;;
92;SDS011;16232;48.800;9.002;2024-03-07T04:59:30;81.03;;;41.87;;
92;SDS011;16232;48.800;9.002;2024-03-07T05:02:01;66.70;;;37.70;;
92;SDS011;16232;48.800;9.002;2024-03-07T05:04:27;97.43;;;45.27;;
92;SDS011;16232;48.800;9.002;2024-03-07T05:06:55;69.97;;;41.77;;
92;SDS011;16232;48.800;9.002;2024-03-07T05:09:23;87.17;;;42.60;;
92;SDS011;16232;48.800;9.002;2024-03-07T05:11:55;76.97;;;41.23;;
92;SDS011;16232;48.800;9.002;2024-03-07T05:14:23;78.40;;;40.77;;
92;SDS011;16232;48.800;9.002;2024-03-07T05:16:50;73.47;;;40.70;;
92;SDS011;16232;48.800;9.002;2024-03-07T05:19:30;101.60;;;44.03;;
92;SDS011;16232;48.800;9.002;2024-03-07T05:22:01;86.57;;;43.30;;
92;SDS011;16232;48.800;9.002;2024-03-07T05:24:30;79.27;;;42.13;;
92;SDS011;16232;48.800;9.002;2024-03-07T05:26:59;68.70;;;39.43;;
92;SDS011;16232;48.800;9.002;2024-03-07T05:29:26;69.70;;;40.10;;
92;SDS011;16232;48.800;9.002;2024-03-07T05:31:54;96.30;;;45.67;;
92;SDS011;16232;48.800;9.002;2024-03-07T05:34:21;85.27;;;43.77;;
92;SDS011;16232;48.800;9.002;2024-03-07T05:36:49;91.63;;;44.27;;
92;SDS011;16232;48.800;9.002;2024-03-07T05:39:17;87.53;;;44.00;;
92;SDS011;16232;48.800;9.002;2024-03-07T05:41:45;85.37;;;43.00;;
92;SDS011;16232;48.800;9.002;2024-03-07T05:44:14;93.10;;;46.60;;
92;SDS011;16232;48.800;9.002;2024-03-07T05:46:44;66.80;;;38.93;;
92;SDS011;16232;48.800;9.002;2024-03-07T05:49:13;86.23;;;44.17;;
92;SDS011;16232;48.800;9.002;2024-03-07T05:51:42;84.47;;;42.00;;
92;SDS011;16232;48.800;9.002;2024-03-07T05:54:10;95.87;;;44.97;;
92;SDS011;16232;48.800;9.002;2024-03-07T05:56:38;85.10;;;43.37;;
92;SDS011;16232;48.800;9.002;2024-03-07T05:59:05;91.13;;;45.20;;
92;SDS011;16232;48.800;9.002;2024-03-07T06:01:36;91.43;;;45.23;;
92;SDS011;16232;48.800;9.002;2024-03-07T06:04:04;97.90;;;46.80;;
92;SDS011;16232;48.800;9.002;2024-03-07T06:06:32;97.47;;;44.80;;
92;SDS011;16232;48.800;9.002;2024-03-07T06:09:00;83.73;;;43.13;;
92;SDS011;16232;48.800;9.002;2024-03-07T06:11:28;77.03;;;41.03;;
92;SDS011;16232;48.800;9.002;2024-03-07T06:13:55;73.83;;;39.90;;
92;SDS011;16232;48.800;9.002;2024-03-07T06:16:23;87.83;;;42.87;;
92;SDS011;16232;48.800;9.002;2024-03-07T06:18:52;78.83;;;43.00;;
92;SDS011;16232;48.800;9.002;2024-03-07T06:21:20;80.50;;;42.70;;
92;SDS011;16232;48.800;9.002;2024-03-07T06:23:47;85.03;;;44.43;;
92;SDS011;16232;48.800;9.002;2024-03-07T06:26:20;95.70;;;45.27;;
92;SDS011;16232;48.800;9.002;2024-03-07T06:29:02;77.57;;;41.53;;
92;SDS011;16232;48.800;9.002;2024-03-07T06:31:31;71.33;;;39.57;;
92;SDS011;16232;48.800;9.002;2024-03-07T06:34:01;84.40;;;43.33;;
92;SDS011;16232;48.800;9.002;2024-03-07T06:36:29;67.63;;;41.67;;
92;SDS011;16232;48.800;9.002;2024-03-07T06:38:56;72.97;;;40.47;;
92;SDS011;16232;48.800;9.002;2024-03-07T06:41:23;81.97;;;44.43;;
92;SDS011;16232;48.800;9.002;2024-03-07T06:43:51;70.50;;;40.07;;
92;SDS011;16232;48.800;9.002;2024-03-07T06:46:20;95.47;;;46.77;;
92;SDS011;16232;48.800;9.002;2024-03-07T06:48:49;69.73;;;39.80;;
92;SDS011;16232;48.800;9.002;2024-03-07T06:51:18;79.93;;;44.03;;
92;SDS011;16232;48.800;9.002;2024-03-07T06:53:45;78.10;;;41.70;;
92;SDS011;16232;48.800;9.002;2024-03-07T06:56:13;75.90;;;43.20;;
92;SDS011;16232;48.800;9.002;2024-03-07T06:58:41;86.03;;;45.73;;
92;SDS011;16232;48.800;9.002;2024-03-07T07:01:11;79.17;;;44.70;;
92;SDS011;16232;48.800;9.002;2024-03-07T07:03:40;75.43;;;44.80;;
92;SDS011;16232;48.800;9.002;2024-03-07T07:06:09;71.43;;;43.53;;
92;SDS011;16232;48.800;9.002;2024-03-07T07:08:38;75.07;;;42.13;;
92;SDS011;16232;48.800;9.002;2024-03-07T07:11:05;68.73;;;42.33;;
92;SDS011;16232;48.800;9.002;2024-03-07T07:13:33;73.80;;;41.80;;
92;SDS011;16232;48.800;9.002;2024-03-07T07:16:02;57.70;;;37.10;;
92;SDS011;16232;48.800;9.002;2024-03-07T07:18:29;55.20;;;37.63;;
92;SDS011;16232;48.800;9.002;2024-03-07T07:20:56;60.27;;;37.63;;
92;SDS011;16232;48.800;9.002;2024-03-07T07:23:24;49.97;;;35.70;;
92;SDS011;16232;48.800;9.002;2024-03-07T07:25:53;56.40;;;36.03;;
92;SDS011;16232;48.800;9.002;2024-03-07T07:28:21;54.47;;;36.37;;
92;SDS011;16232;48.800;9.002;2024-03-07T07:30:53;56.57;;;37.07;;
92;SDS011;16232;48.800;9.002;2024-03-07T07:33:21;50.70;;;34.37;;
92;SDS011;16232;48.800;9.002;2024-03-07T07:35:49;49.30;;;33.87;;
92;SDS011;16232;48.800;9.002;2024-03-07T07:38:16;52.97;;;35.13;;
92;SDS011;16232;48.800;9.002;2024-03-07T07:40:44;54.23;;;35.37;;
92;SDS011;16232;48.800;9.002;2024-03-07T07:43:12;51.83;;;35.80;;
92;SDS011;16232;48.800;9.002;2024-03-07T07:45:40;51.67;;;34.93;;
92;SDS011;16232;48.800;9.002;2024-03-07T07:48:07;49.73;;;35.07;;
92;SDS011;16232;48.800;9.002;2024-03-07T07:50:36;47.30;;;32.47;;
92;SDS011;16232;48.800;9.002;2024-03-07T07:53:04;44.83;;;31.83;;
92;SDS011;16232;48.800;9.002;2024-03-07T07:55:34;49.77;;;33.43;;
92;SDS011;16232;48.800;9.002;2024-03-07T07:58:02;44.90;;;32.77;;
92;SDS011;16232;48.800;9.002;2024-03-07T08:00:31;41.50;;;29.00;;
92;SDS011;16232;48.800;9.002;2024-03-07T08:03:01;40.57;;;29.47;;
92;SDS011;16232;48.800;9.002;2024-03-07T08:05:29;39.13;;;29.57;;
92;SDS011;16232;48.800;9.002;2024-03-07T08:07:58;40.80;;;29.23;;
92;SDS011;16232;48.800;9.002;2024-03-07T08:10:26;37.50;;;28.20;;
92;SDS011;16232;48.800;9.002;2024-03-07T08:12:54;37.13;;;27.87;;
92;SDS011;16232;48.800;9.002;2024-03-07T08:15:21;35.10;;;27.47;;
92;SDS011;16232;48.800;9.002;2024-03-07T08:17:50;30.87;;;24.17;;
92;SDS011;16232;48.800;9.002;2024-03-07T08:20:18;33.93;;;24.97;;
92;SDS011;16232;48.800;9.002;2024-03-07T08:22:46;32.63;;;24.97;;
92;SDS011;16232;48.800;9.002;2024-03-07T08:25:16;28.87;;;22.97;;
92;SDS011;16232;48.800;9.002;2024-03-07T08:27:44;30.50;;;22.73;;
92;SDS011;16232;48.800;9.002;2024-03-07T08:30:13;26.87;;;21.53;;
92;SDS011;16232;48.800;9.002;2024-03-07T08:32:41;28.50;;;22.37;;
92;SDS011;16232;48.800;9.002;2024-03-07T08:35:10;31.00;;;24.83;;
92;SDS011;16232;48.800;9.002;2024-03-07T08:37:38;29.67;;;23.10;;
92;SDS011;16232;48.800;9.002;2024-03-07T08:40:06;30.00;;;23.07;;
92;SDS011;16232;48.800;9.002;2024-03-07T08:42:35;29.43;;;22.80;;
92;SDS011;16232;48.800;9.002;2024-03-07T08:45:03;31.37;;;24.73;;
92;SDS011;16232;48.800;9.002;2024-03-07T08:47:31;30.50;;;24.13;;
92;SDS011;16232;48.800;9.002;2024-03-07T08:49:58;27.53;;;21.73;;
92;SDS011;16232;48.800;9.002;2024-03-07T08:52:27;30.30;;;22.43;;
92;SDS011;16232;48.800;9.002;2024-03-07T08:54:54;27.17;;;23.27;;
92;SDS011;16232;48.800;9.002;2024-03-07T08:57:22;33.07;;;24.43;;
92;SDS011;16232;48.800;9.002;2024-03-07T08:59:49;28.83;;;23.40;;
92;SDS011;16232;48.800;9.002;2024-03-07T09:02:17;27.70;;;22.27;;
92;SDS011;16232;48.800;9.002;2024-03-07T09:04:44;33.10;;;25.40;;
92;SDS011;16232;48.800;9.002;2024-03-07T09:07:12;29.57;;;24.13;;
92;SDS011;16232;48.800;9.002;2024-03-07T09:09:41;31.17;;;23.93;;
92;SDS011;16232;48.800;9.002;2024-03-07T09:12:13;31.87;;;24.80;;
92;SDS011;16232;48.800;9.002;2024-03-07T09:14:40;30.77;;;23.67;;
92;SDS011;16232;48.800;9.002;2024-03-07T09:17:08;33.47;;;25.87;;
92;SDS011;16232;48.800;9.002;2024-03-07T09:19:35;33.03;;;26.07;;
92;SDS011;16232;48.800;9.002;2024-03-07T09:22:03;31.77;;;24.90;;
92;SDS011;16232;48.800;9.002;2024-03-07T09:24:33;32.07;;;25.93;;
92;SDS011;16232;48.800;9.002;2024-03-07T09:27:04;30.87;;;24.97;;
92;SDS011;16232;48.800;9.002;2024-03-07T09:29:31;35.53;;;27.97;;
92;SDS011;16232;48.800;9.002;2024-03-07T09:31:59;32.87;;;25.23;;
92;SDS011;16232;48.800;9.002;2024-03-07T09:34:27;32.53;;;24.77;;
92;SDS011;16232;48.800;9.002;2024-03-07T09:36:56;32.97;;;26.13;;
92;SDS011;16232;48.800;9.002;2024-03-07T09:39:24;30.23;;;25.07;;
92;SDS011;16232;48.800;9.002;2024-03-07T09:41:52;36.97;;;26.23;;
92;SDS011;16232;48.800;9.002;2024-03-07T09:44:21;35.13;;;24.97;;
92;SDS011;16232;48.800;9.002;2024-03-07T09:46:52;31.37;;;25.27;;
92;SDS011;16232;48.800;9.002;2024-03-07T09:49:20;29.83;;;24.27;;
92;SDS011;16232;48.800;9.002;2024-03-07T09:51:49;32.43;;;25.60;;
92;SDS011;16232;48.800;9.002;2024-03-07T09:54:20;33.80;;;26.93;;
92;SDS011;16232;48.800;9.002;2024-03-07T09:56:49;30.80;;;24.17;;
92;SDS011;16232;48.800;9.002;2024-03-07T09:59:17;32.20;;;25.83;;
92;SDS011;16232;48.800;9.002;2024-03-07T10:01:49;31.00;;;25.43;;
92;SDS011;16232;48.800;9.002;2024-03-07T10:04:18;28.57;;;23.53;;
92;SDS011;16232;48.800;9.002;2024-03-07T10:06:48;29.53;;;24.03;;
92;SDS011;16232;48.800;9.002;2024-03-07T10:09:18;32.93;;;26.03;;
92;SDS011;16232;48.800;9.002;2024-03-07T10:11:54;30.00;;;24.60;;
92;SDS011;16232;48.800;9.002;2024-03-07T10:14:22;29.87;;;23.97;;
92;SDS011;16232;48.800;9.002;2024-03-07T10:16:51;34.27;;;25.27;;
92;SDS011;16232;48.800;9.002;2024-03-07T10:19:22;32.30;;;24.47;;
92;SDS011;16232;48.800;9.002;2024-03-07T10:21:49;33.47;;;25.67;;
92;SDS011;16232;48.800;9.002;2024-03-07T10:24:23;31.20;;;23.83;;
92;SDS011;16232;48.800;9.002;2024-03-07T10:26:51;32.57;;;25.97;;
92;SDS011;16232;48.800;9.002;2024-03-07T10:29:21;35.00;;;25.97;;
92;SDS011;16232;48.800;9.002;2024-03-07T10:31:49;31.30;;;23.43;;
92;SDS011;16232;48.800;9.002;2024-03-07T10:34:18;30.23;;;22.47;;
92;SDS011;16232;48.800;9.002;2024-03-07T10:36:47;28.47;;;21.60;;
92;SDS011;16232;48.800;9.002;2024-03-07T10:39:14;29.53;;;23.77;;
92;SDS011;16232;48.800;9.002;2024-03-07T10:41:47;26.43;;;20.97;;
92;SDS011;16232;48.800;9.002;2024-03-07T10:44:17;28.13;;;21.13;;
92;SDS011;16232;48.800;9.002;2024-03-07T10:46:51;34.20;;;22.53;;
92;SDS011;16232;48.800;9.002;2024-03-07T10:49:25;23.90;;;19.10;;
92;SDS011;16232;48.800;9.002;2024-03-07T10:51:57;24.53;;;21.00;;
92;SDS011;16232;48.800;9.002;2024-03-07T10:54:28;23.83;;;21.10;;
92;SDS011;16232;48.800;9.002;2024-03-07T10:57:01;25.10;;;19.97;;
92;SDS011;16232;48.800;9.002;2024-03-07T10:59:33;25.37;;;22.17;;
92;SDS011;16232;48.800;9.002;2024-03-07T11:02:06;24.00;;;21.13;;
92;SDS011;16232;48.800;9.002;2024-03-07T11:04:42;23.23;;;19.67;;
92;SDS011;16232;48.800;9.002;2024-03-07T11:07:11;24.30;;;20.57;;
92;SDS011;16232;48.800;9.002;2024-03-07T11:09:38;21.73;;;19.43;;
92;SDS011;16232;48.800;9.002;2024-03-07T11:12:07;23.17;;;20.17;;
92;SDS011;16232;48.800;9.002;2024-03-07T11:14:36;25.00;;;20.70;;
92;SDS011;16232;48.800;9.002;2024-03-07T11:17:04;25.30;;;20.60;;
92;SDS011;16232;48.800;9.002;2024-03-07T11:19:32;26.47;;;20.53;;
92;SDS011;16232;48.800;9.002;2024-03-07T11:22:03;25.33;;;19.60;;
92;SDS011;16232;48.800;9.002;2024-03-07T11:24:40;25.87;;;20.17;;
92;SDS011;16232;48.800;9.002;2024-03-07T11:27:09;24.57;;;19.97;;
92;SDS011;16232;48.800;9.002;2024-03-07T11:29:40;23.63;;;20.30;;
92;SDS011;16232;48.800;9.002;2024-03-07T11:32:12;26.23;;;20.27;;
92;SDS011;16232;48.800;9.002;2024-03-07T11:34:40;28.07;;;20.77;;
92;SDS011;16232;48.800;9.002;2024-03-07T11:37:18;28.83;;;21.70;;
92;SDS011;16232;48.800;9.002;2024-03-07T11:39:47;27.17;;;21.00;;
92;SDS011;16232;48.800;9.002;2024-03-07T11:42:19;25.77;;;19.20;;
92;SDS011;16232;48.800;9.002;2024-03-07T11:44:48;28.23;;;21.43;;
92;SDS011;16232;48.800;9.002;2024-03-07T11:47:16;28.87;;;21.37;;
92;SDS011;16232;48.800;9.002;2024-03-07T11:49:44;29.73;;;21.93;;
92;SDS011;16232;48.800;9.002;2024-03-07T11:52:14;30.33;;;23.17;;
92;SDS011;16232;48.800;9.002;2024-03-07T11:54:43;30.23;;;22.37;;
92;SDS011;16232;48.800;9.002;2024-03-07T11:57:15;27.90;;;22.50;;
92;SDS011;16232;48.800;9.002;2024-03-07T11:59:44;32.37;;;22.97;;
92;SDS011;16232;48.800;9.002;2024-03-07T12:02:12;30.03;;;23.33;;
92;SDS011;16232;48.800;9.002;2024-03-07T12:04:41;30.87;;;23.07;;
92;SDS011;16232;48.800;9.002;2024-03-07T12:07:08;25.90;;;21.20;;
92;SDS011;16232;48.800;9.002;2024-03-07T12:09:37;31.03;;;22.50;;
92;SDS011;16232;48.800;9.002;2024-03-07T12:12:06;29.67;;;23.37;;
92;SDS011;16232;48.800;9.002;2024-03-07T12:14:34;29.40;;;21.90;;
92;SDS011;16232;48.800;9.002;2024-03-07T12:17:02;31.53;;;24.07;;
92;SDS011;16232;48.800;9.002;2024-03-07T12:19:31;32.07;;;23.43;;
92;SDS011;16232;48.800;9.002;2024-03-07T12:22:00;33.60;;;24.13;;
92;SDS011;16232;48.800;9.002;2024-03-07T12:24:28;32.87;;;23.40;;
92;SDS011;16232;48.800;9.002;2024-03-07T12:27:06;34.70;;;25.47;;
92;SDS011;16232;48.800;9.002;2024-03-07T12:29:35;31.10;;;23.73;;
92;SDS011;16232;48.800;9.002;2024-03-07T12:32:03;35.37;;;24.47;;
92;SDS011;16232;48.800;9.002;2024-03-07T12:34:32;31.43;;;23.40;;
92;SDS011;16232;48.800;9.002;2024-03-07T12:37:01;33.83;;;24.83;;
92;SDS011;16232;48.800;9.002;2024-03-07T12:39:31;32.07;;;23.87;;
92;SDS011;16232;48.800;9.002;2024-03-07T12:42:01;32.90;;;23.10;;
92;SDS011;16232;48.800;9.002;2024-03-07T12:44:40;32.60;;;23.20;;
92;SDS011;16232;48.800;9.002;2024-03-07T12:47:09;31.00;;;23.57;;
92;SDS011;16232;48.800;9.002;2024-03-07T12:49:37;32.93;;;24.83;;
92;SDS011;16232;48.800;9.002;2024-03-07T12:52:05;31.83;;;23.67;;
92;SDS011;16232;48.800;9.002;2024-03-07T12:54:34;34.90;;;24.37;;
92;SDS011;16232;48.800;9.002;2024-03-07T12:57:02;30.20;;;22.50;;
92;SDS011;16232;48.800;9.002;2024-03-07T12:59:31;32.30;;;24.87;;
92;SDS011;16232;48.800;9.002;2024-03-07T13:02:00;32.77;;;23.53;;
92;SDS011;16232;48.800;9.002;2024-03-07T13:04:28;33.00;;;25.03;;
92;SDS011;16232;48.800;9.002;2024-03-07T13:06:55;36.00;;;26.07;;
92;SDS011;16232;48.800;9.002;2024-03-07T13:09:25;32.93;;;25.63;;
92;SDS011;16232;48.800;9.002;2024-03-07T13:11:53;36.83;;;25.50;;
92;SDS011;16232;48.800;9.002;2024-03-07T13:14:20;33.37;;;25.93;;
92;SDS011;16232;48.800;9.002;2024-03-07T13:16:48;31.20;;;24.73;;
92;SDS011;16232;48.800;9.002;2024-03-07T13:19:17;35.27;;;26.50;;
92;SDS011;16232;48.800;9.002;2024-03-07T13:21:46;34.17;;;25.97;;
92;SDS011;16232;48.800;9.002;2024-03-07T13:24:14;36.40;;;26.97;;
92;SDS011;16232;48.800;9.002;2024-03-07T13:26:42;33.50;;;26.30;;
92;SDS011;16232;48.800;9.002;2024-03-07T13:29:10;30.77;;;24.93;;
92;SDS011;16232;48.800;9.002;2024-03-07T13:31:39;34.87;;;25.63;;
92;SDS011;16232;48.800;9.002;2024-03-07T13:34:07;31.57;;;25.30;;
92;SDS011;16232;48.800;9.002;2024-03-07T13:36:40;33.77;;;25.50;;
92;SDS011;16232;48.800;9.002;2024-03-07T13:39:08;32.50;;;25.43;;
92;SDS011;16232;48.800;9.002;2024-03-07T13:41:36;30.70;;;24.63;;
92;SDS011;16232;48.800;9.002;2024-03-07T13:44:04;31.73;;;23.97;;
92;SDS011;16232;48.800;9.002;2024-03-07T13:46:31;31.77;;;24.63;;
92;SDS011;16232;48.800;9.002;2024-03-07T13:48:59;34.30;;;24.70;;
92;SDS011;16232;48.800;9.002;2024-03-07T13:51:33;31.03;;;25.47;;
92;SDS011;16232;48.800;9.002;2024-03-07T13:54:03;33.67;;;25.43;;
92;SDS011;16232;48.800;9.002;2024-03-07T13:56:53;35.63;;;27.23;;
92;SDS011;16232;48.800;9.002;2024-03-07T13:59:30;36.83;;;26.60;;
92;SDS011;16232;48.800;9.002;2024-03-07T14:02:03;33.63;;;25.13;;
92;SDS011;16232;48.800;9.002;2024-03-07T14:04:50;32.10;;;26.33;;
92;SDS011;16232;48.800;9.002;2024-03-07T14:07:37;32.20;;;26.40;;
92;SDS011;16232;48.800;9.002;2024-03-07T14:10:16;32.27;;;25.83;;
92;SDS011;16232;48.800;9.002;2024-03-07T14:13:04;35.00;;;27.27;;
92;SDS011;16232;48.800;9.002;2024-03-07T14:15:45;29.87;;;24.30;;
92;SDS011;16232;48.800;9.002;2024-03-07T14:21:19;30.10;;;24.10;;
92;SDS011;16232;48.800;9.002;2024-03-07T14:24:07;29.27;;;23.23;;
92;SDS011;16232;48.800;9.002;2024-03-07T14:26:49;29.77;;;24.73;;
92;SDS011;16232;48.800;9.002;2024-03-07T14:29:22;32.67;;;24.80;;
92;SDS011;16232;48.800;9.002;2024-03-07T14:31:53;29.73;;;23.87;;
92;SDS011;16232;48.800;9.002;2024-03-07T14:34:29;31.80;;;25.27;;
92;SDS011;16232;48.800;9.002;2024-03-07T14:37:04;32.33;;;23.57;;
92;SDS011;16232;48.800;9.002;2024-03-07T14:39:32;31.27;;;25.13;;
92;SDS011;16232;48.800;9.002;2024-03-07T14:42:04;36.63;;;25.93;;
92;SDS011;16232;48.800;9.002;2024-03-07T14:44:36;33.03;;;26.40;;
92;SDS011;16232;48.800;9.002;2024-03-07T14:47:05;31.90;;;25.67;;
92;SDS011;16232;48.800;9.002;2024-03-07T14:49:36;32.10;;;25.63;;
92;SDS011;16232;48.800;9.002;2024-03-07T14:52:05;32.63;;;26.17;;
92;SDS011;16232;48.800;9.002;2024-03-07T14:54:36;34.70;;;27.10;;
92;SDS011;16232;48.800;9.002;2024-03-07T14:57:05;34.20;;;27.17;;
92;SDS011;16232;48.800;9.002;2024-03-07T14:59:32;34.40;;;26.83;;
92;SDS011;16232;48.800;9.002;2024-03-07T15:02:00;34.83;;;26.63;;
92;SDS011;16232;48.800;9.002;2024-03-07T15:04:29;38.03;;;28.20;;
92;SDS011;16232;48.800;9.002;2024-03-07T15:06:57;34.20;;;25.63;;
92;SDS011;16232;48.800;9.002;2024-03-07T15:09:27;36.90;;;27.37;;
92;SDS011;16232;48.800;9.002;2024-03-07T15:11:55;34.33;;;27.53;;
92;SDS011;16232;48.800;9.002;2024-03-07T15:14:24;34.27;;;26.87;;